sensor_id;sensor_type;location;lat;lon;timestamp;P1;durP1;ratioP1;P2;durP2;ratioP2
56201;SDS011;42117;50.360;3.508;2023-03-01T00:00:21;13.40;;;6.60;;
56201;SDS011;42117;50.360;3.508;2023-03-01T00:02:47;14.40;;;7.33;;
56201;SDS011;42117;50.360;3.508;2023-03-01T00:05:13;11.60;;;6.95;;
56201;SDS011;42117;50.360;3.508;2023-03-01T00:07:39;12.90;;;6.90;;
56201;SDS011;42117;50.360;3.508;2023-03-01T00:10:05;14.38;;;7.35;;
56201;SDS011;42117;50.360;3.508;2023-03-01T00:12:31;14.10;;;7.18;;
56201;SDS011;42117;50.360;3.508;2023-03-01T00:14:57;11.75;;;6.72;;
56201;SDS011;42117;50.360;3.508;2023-03-01T00:17:23;11.68;;;7.25;;
56201;SDS011;42117;50.360;3.508;2023-03-01T00:19:49;11.95;;;6.75;;
56201;SDS011;42117;50.360;3.508;2023-03-01T00:22:15;12.05;;;6.93;;
56201;SDS011;42117;50.360;3.508;2023-03-01T00:24:41;11.03;;;7.00;;
56201;SDS011;42117;50.360;3.508;2023-03-01T00:27:07;12.48;;;7.82;;
56201;SDS011;42117;50.360;3.508;2023-03-01T00:29:33;10.63;;;6.65;;
56201;SDS011;42117;50.360;3.508;2023-03-01T00:31:59;13.45;;;7.05;;
56201;SDS011;42117;50.360;3.508;2023-03-01T00:34:25;11.60;;;6.82;;
56201;SDS011;42117;50.360;3.508;2023-03-01T00:36:51;8.88;;;6.25;;
56201;SDS011;42117;50.360;3.508;2023-03-01T00:39:17;12.63;;;6.83;;
56201;SDS011;42117;50.360;3.508;2023-03-01T00:41:43;9.98;;;6.72;;
56201;SDS011;42117;50.360;3.508;2023-03-01T00:44:09;11.02;;;6.57;;
56201;SDS011;42117;50.360;3.508;2023-03-01T00:46:35;11.40;;;7.00;;
56201;SDS011;42117;50.360;3.508;2023-03-01T00:49:01;12.98;;;6.68;;
56201;SDS011;42117;50.360;3.508;2023-03-01T00:51:29;9.95;;;6.45;;
56201;SDS011;42117;50.360;3.508;2023-03-01T00:53:56;11.07;;;6.50;;
56201;SDS011;42117;50.360;3.508;2023-03-01T00:56:23;8.75;;;6.55;;
56201;SDS011;42117;50.360;3.508;2023-03-01T00:58:49;9.57;;;6.77;;
56201;SDS011;42117;50.360;3.508;2023-03-01T01:01:19;11.43;;;7.60;;
56201;SDS011;42117;50.360;3.508;2023-03-01T01:06:18;12.55;;;6.97;;
56201;SDS011;42117;50.360;3.508;2023-03-01T01:08:44;10.60;;;6.93;;
56201;SDS011;42117;50.360;3.508;2023-03-01T01:11:11;11.00;;;6.78;;
56201;SDS011;42117;50.360;3.508;2023-03-01T01:13:37;9.52;;;5.90;;
56201;SDS011;42117;50.360;3.508;2023-03-01T01:16:03;10.67;;;5.87;;
56201;SDS011;42117;50.360;3.508;2023-03-01T01:18:30;10.90;;;6.20;;
56201;SDS011;42117;50.360;3.508;2023-03-01T01:20:56;10.80;;;6.47;;
56201;SDS011;42117;50.360;3.508;2023-03-01T01:23:22;12.40;;;6.05;;
56201;SDS011;42117;50.360;3.508;2023-03-01T01:25:48;9.77;;;6.63;;
56201;SDS011;42117;50.360;3.508;2023-03-01T01:28:14;9.32;;;6.50;;
56201;SDS011;42117;50.360;3.508;2023-03-01T01:30:40;11.38;;;6.95;;
56201;SDS011;42117;50.360;3.508;2023-03-01T01:33:06;12.10;;;6.63;;
56201;SDS011;42117;50.360;3.508;2023-03-01T01:35:32;10.75;;;6.00;;
56201;SDS011;42117;50.360;3.508;2023-03-01T01:37:58;10.68;;;6.22;;
56201;SDS011;42117;50.360;3.508;2023-03-01T01:40:24;12.85;;;6.93;;
56201;SDS011;42117;50.360;3.508;2023-03-01T01:42:50;9.93;;;6.38;;
56201;SDS011;42117;50.360;3.508;2023-03-01T01:45:49;11.40;;;6.17;;
56201;SDS011;42117;50.360;3.508;2023-03-01T01:48:10;9.32;;;6.80;;
56201;SDS011;42117;50.360;3.508;2023-03-01T01:50:39;11.38;;;6.60;;
56201;SDS011;42117;50.360;3.508;2023-03-01T01:53:07;14.15;;;6.63;;
56201;SDS011;42117;50.360;3.508;2023-03-01T01:55:35;9.63;;;6.20;;
56201;SDS011;42117;50.360;3.508;2023-03-01T01:58:04;12.15;;;6.68;;
56201;SDS011;42117;50.360;3.508;2023-03-01T02:00:30;13.38;;;6.53;;
56201;SDS011;42117;50.360;3.508;2023-03-01T02:03:02;11.25;;;6.38;;
56201;SDS011;42117;50.360;3.508;2023-03-01T02:05:33;10.35;;;6.80;;
56201;SDS011;42117;50.360;3.508;2023-03-01T02:08:01;16.00;;;6.55;;
56201;SDS011;42117;50.360;3.508;2023-03-01T02:10:27;10.18;;;6.60;;
56201;SDS011;42117;50.360;3.508;2023-03-01T02:12:53;11.50;;;6.20;;
56201;SDS011;42117;50.360;3.508;2023-03-01T02:15:21;10.25;;;6.28;;
56201;SDS011;42117;50.360;3.508;2023-03-01T02:17:47;11.43;;;6.00;;
56201;SDS011;42117;50.360;3.508;2023-03-01T02:20:27;10.30;;;6.07;;
56201;SDS011;42117;50.360;3.508;2023-03-01T02:22:58;10.50;;;6.13;;
56201;SDS011;42117;50.360;3.508;2023-03-01T02:30:21;10.77;;;6.70;;
56201;SDS011;42117;50.360;3.508;2023-03-01T02:32:47;8.57;;;5.60;;
56201;SDS011;42117;50.360;3.508;2023-03-01T02:35:14;11.63;;;6.80;;
56201;SDS011;42117;50.360;3.508;2023-03-01T02:37:42;9.60;;;6.03;;
56201;SDS011;42117;50.360;3.508;2023-03-01T02:40:09;9.90;;;6.28;;
56201;SDS011;42117;50.360;3.508;2023-03-01T02:42:38;8.60;;;6.13;;
56201;SDS011;42117;50.360;3.508;2023-03-01T02:45:06;13.27;;;6.65;;
56201;SDS011;42117;50.360;3.508;2023-03-01T02:47:32;9.77;;;6.70;;
56201;SDS011;42117;50.360;3.508;2023-03-01T02:49:58;8.88;;;6.53;;
56201;SDS011;42117;50.360;3.508;2023-03-01T02:52:37;11.32;;;6.45;;
56201;SDS011;42117;50.360;3.508;2023-03-01T02:55:11;9.00;;;6.05;;
56201;SDS011;42117;50.360;3.508;2023-03-01T02:57:38;11.15;;;6.68;;
56201;SDS011;42117;50.360;3.508;2023-03-01T03:00:15;9.30;;;5.95;;
56201;SDS011;42117;50.360;3.508;2023-03-01T03:02:45;12.30;;;7.30;;
56201;SDS011;42117;50.360;3.508;2023-03-01T03:05:20;12.73;;;6.30;;
56201;SDS011;42117;50.360;3.508;2023-03-01T03:07:47;13.13;;;6.47;;
56201;SDS011;42117;50.360;3.508;2023-03-01T03:10:15;10.02;;;6.18;;
56201;SDS011;42117;50.360;3.508;2023-03-01T03:12:41;10.13;;;6.60;;
56201;SDS011;42117;50.360;3.508;2023-03-01T03:15:08;8.52;;;6.20;;
56201;SDS011;42117;50.360;3.508;2023-03-01T03:17:38;10.90;;;6.60;;
56201;SDS011;42117;50.360;3.508;2023-03-01T03:20:05;9.70;;;6.90;;
56201;SDS011;42117;50.360;3.508;2023-03-01T03:22:35;11.77;;;6.38;;
56201;SDS011;42117;50.360;3.508;2023-03-01T03:25:01;14.02;;;7.28;;
56201;SDS011;42117;50.360;3.508;2023-03-01T03:27:27;11.20;;;6.45;;
56201;SDS011;42117;50.360;3.508;2023-03-01T03:29:53;9.63;;;6.40;;
56201;SDS011;42117;50.360;3.508;2023-03-01T03:32:19;9.20;;;6.57;;
56201;SDS011;42117;50.360;3.508;2023-03-01T03:34:45;11.93;;;6.28;;
56201;SDS011;42117;50.360;3.508;2023-03-01T03:37:11;8.95;;;6.32;;
56201;SDS011;42117;50.360;3.508;2023-03-01T03:39:58;10.70;;;6.32;;
56201;SDS011;42117;50.360;3.508;2023-03-01T03:42:24;10.00;;;5.97;;
56201;SDS011;42117;50.360;3.508;2023-03-01T03:44:50;9.73;;;6.20;;
56201;SDS011;42117;50.360;3.508;2023-03-01T03:47:16;12.48;;;6.65;;
56201;SDS011;42117;50.360;3.508;2023-03-01T03:49:42;9.85;;;6.40;;
56201;SDS011;42117;50.360;3.508;2023-03-01T03:52:08;9.40;;;5.45;;
56201;SDS011;42117;50.360;3.508;2023-03-01T03:54:38;8.77;;;5.85;;
56201;SDS011;42117;50.360;3.508;2023-03-01T03:57:05;10.70;;;6.80;;
56201;SDS011;42117;50.360;3.508;2023-03-01T03:59:31;13.07;;;6.60;;
56201;SDS011;42117;50.360;3.508;2023-03-01T04:01:57;10.25;;;6.60;;
56201;SDS011;42117;50.360;3.508;2023-03-01T04:04:23;12.00;;;7.13;;
56201;SDS011;42117;50.360;3.508;2023-03-01T04:06:49;10.75;;;6.47;;
56201;SDS011;42117;50.360;3.508;2023-03-01T04:09:15;15.97;;;7.17;;
56201;SDS011;42117;50.360;3.508;2023-03-01T04:11:41;9.30;;;6.90;;
56201;SDS011;42117;50.360;3.508;2023-03-01T04:14:07;11.40;;;6.63;;
56201;SDS011;42117;50.360;3.508;2023-03-01T04:16:33;13.25;;;6.95;;
56201;SDS011;42117;50.360;3.508;2023-03-01T04:18:59;9.73;;;7.00;;
56201;SDS011;42117;50.360;3.508;2023-03-01T04:21:25;14.52;;;6.70;;
56201;SDS011;42117;50.360;3.508;2023-03-01T04:23:51;11.93;;;7.03;;
56201;SDS011;42117;50.360;3.508;2023-03-01T04:26:18;11.85;;;7.18;;
56201;SDS011;42117;50.360;3.508;2023-03-01T04:28:44;12.07;;;7.60;;
56201;SDS011;42117;50.360;3.508;2023-03-01T04:31:17;10.85;;;6.63;;
56201;SDS011;42117;50.360;3.508;2023-03-01T04:33:47;10.70;;;6.90;;
56201;SDS011;42117;50.360;3.508;2023-03-01T04:36:14;10.35;;;7.13;;
56201;SDS011;42117;50.360;3.508;2023-03-01T04:38:41;15.35;;;6.90;;
56201;SDS011;42117;50.360;3.508;2023-03-01T04:41:07;11.57;;;7.03;;
56201;SDS011;42117;50.360;3.508;2023-03-01T04:43:34;10.90;;;6.90;;
56201;SDS011;42117;50.360;3.508;2023-03-01T04:46:01;12.50;;;7.22;;
56201;SDS011;42117;50.360;3.508;2023-03-01T04:48:28;12.77;;;6.93;;
56201;SDS011;42117;50.360;3.508;2023-03-01T04:50:54;12.25;;;6.82;;
56201;SDS011;42117;50.360;3.508;2023-03-01T04:53:20;9.75;;;6.47;;
56201;SDS011;42117;50.360;3.508;2023-03-01T04:55:46;10.17;;;6.40;;
56201;SDS011;42117;50.360;3.508;2023-03-01T04:58:12;10.48;;;6.93;;
56201;SDS011;42117;50.360;3.508;2023-03-01T05:00:38;13.18;;;6.68;;
56201;SDS011;42117;50.360;3.508;2023-03-01T05:03:04;10.73;;;6.90;;
56201;SDS011;42117;50.360;3.508;2023-03-01T05:05:31;13.50;;;7.57;;
56201;SDS011;42117;50.360;3.508;2023-03-01T05:07:58;12.82;;;6.82;;
56201;SDS011;42117;50.360;3.508;2023-03-01T05:10:25;12.02;;;7.25;;
56201;SDS011;42117;50.360;3.508;2023-03-01T05:12:53;12.68;;;7.15;;
56201;SDS011;42117;50.360;3.508;2023-03-01T05:15:19;16.05;;;7.72;;
56201;SDS011;42117;50.360;3.508;2023-03-01T05:17:47;12.80;;;7.15;;
56201;SDS011;42117;50.360;3.508;2023-03-01T05:20:13;12.23;;;7.53;;
56201;SDS011;42117;50.360;3.508;2023-03-01T05:22:39;11.15;;;6.90;;
56201;SDS011;42117;50.360;3.508;2023-03-01T05:25:05;11.23;;;6.93;;
56201;SDS011;42117;50.360;3.508;2023-03-01T05:27:32;10.35;;;7.35;;
56201;SDS011;42117;50.360;3.508;2023-03-01T05:29:58;14.68;;;7.95;;
56201;SDS011;42117;50.360;3.508;2023-03-01T05:32:24;13.32;;;7.97;;
56201;SDS011;42117;50.360;3.508;2023-03-01T05:34:50;13.95;;;7.57;;
56201;SDS011;42117;50.360;3.508;2023-03-01T05:37:17;15.68;;;7.72;;
56201;SDS011;42117;50.360;3.508;2023-03-01T05:39:43;13.27;;;7.78;;
56201;SDS011;42117;50.360;3.508;2023-03-01T05:42:10;13.27;;;7.18;;
56201;SDS011;42117;50.360;3.508;2023-03-01T05:44:36;12.45;;;8.07;;
56201;SDS011;42117;50.360;3.508;2023-03-01T05:47:03;13.65;;;7.10;;
56201;SDS011;42117;50.360;3.508;2023-03-01T05:49:29;13.02;;;7.55;;
56201;SDS011;42117;50.360;3.508;2023-03-01T05:51:55;13.02;;;8.10;;
56201;SDS011;42117;50.360;3.508;2023-03-01T05:54:21;11.38;;;7.32;;
56201;SDS011;42117;50.360;3.508;2023-03-01T05:56:47;12.55;;;7.90;;
56201;SDS011;42117;50.360;3.508;2023-03-01T05:59:13;10.68;;;7.60;;
56201;SDS011;42117;50.360;3.508;2023-03-01T06:01:41;15.30;;;8.20;;
56201;SDS011;42117;50.360;3.508;2023-03-01T06:04:07;13.43;;;8.17;;
56201;SDS011;42117;50.360;3.508;2023-03-01T06:06:33;13.30;;;7.60;;
56201;SDS011;42117;50.360;3.508;2023-03-01T06:08:59;12.80;;;7.47;;
56201;SDS011;42117;50.360;3.508;2023-03-01T06:11:25;16.35;;;8.25;;
56201;SDS011;42117;50.360;3.508;2023-03-01T06:13:51;15.20;;;8.45;;
56201;SDS011;42117;50.360;3.508;2023-03-01T06:16:18;13.63;;;7.97;;
56201;SDS011;42117;50.360;3.508;2023-03-01T06:18:44;12.25;;;8.40;;
56201;SDS011;42117;50.360;3.508;2023-03-01T06:21:10;13.82;;;8.63;;
56201;SDS011;42117;50.360;3.508;2023-03-01T06:23:36;15.13;;;8.43;;
56201;SDS011;42117;50.360;3.508;2023-03-01T06:26:05;14.93;;;8.97;;
56201;SDS011;42117;50.360;3.508;2023-03-01T06:28:31;17.98;;;9.00;;
56201;SDS011;42117;50.360;3.508;2023-03-01T06:30:57;19.67;;;8.55;;
56201;SDS011;42117;50.360;3.508;2023-03-01T06:33:23;12.75;;;7.40;;
56201;SDS011;42117;50.360;3.508;2023-03-01T06:35:49;17.05;;;8.25;;
56201;SDS011;42117;50.360;3.508;2023-03-01T06:38:16;16.73;;;7.45;;
56201;SDS011;42117;50.360;3.508;2023-03-01T06:40:43;14.93;;;7.73;;
56201;SDS011;42117;50.360;3.508;2023-03-01T06:43:09;13.15;;;7.57;;
56201;SDS011;42117;50.360;3.508;2023-03-01T06:45:36;19.45;;;8.48;;
56201;SDS011;42117;50.360;3.508;2023-03-01T06:48:05;14.80;;;8.35;;
56201;SDS011;42117;50.360;3.508;2023-03-01T06:50:32;16.17;;;9.20;;
56201;SDS011;42117;50.360;3.508;2023-03-01T06:52:58;20.27;;;8.73;;
56201;SDS011;42117;50.360;3.508;2023-03-01T06:55:24;25.03;;;8.73;;
56201;SDS011;42117;50.360;3.508;2023-03-01T06:57:54;13.88;;;7.70;;
56201;SDS011;42117;50.360;3.508;2023-03-01T07:00:21;18.63;;;7.70;;
56201;SDS011;42117;50.360;3.508;2023-03-01T07:02:47;18.48;;;7.75;;
56201;SDS011;42117;50.360;3.508;2023-03-01T07:05:13;11.63;;;8.05;;
56201;SDS011;42117;50.360;3.508;2023-03-01T07:07:39;13.13;;;8.33;;
56201;SDS011;42117;50.360;3.508;2023-03-01T07:10:05;13.70;;;8.57;;
56201;SDS011;42117;50.360;3.508;2023-03-01T07:12:31;19.35;;;8.32;;
56201;SDS011;42117;50.360;3.508;2023-03-01T07:14:57;17.92;;;9.55;;
56201;SDS011;42117;50.360;3.508;2023-03-01T07:17:23;14.63;;;7.97;;
56201;SDS011;42117;50.360;3.508;2023-03-01T07:19:49;20.10;;;9.88;;
56201;SDS011;42117;50.360;3.508;2023-03-01T07:22:15;16.42;;;8.48;;
56201;SDS011;42117;50.360;3.508;2023-03-01T07:24:42;13.13;;;8.30;;
56201;SDS011;42117;50.360;3.508;2023-03-01T07:27:08;16.92;;;8.68;;
56201;SDS011;42117;50.360;3.508;2023-03-01T07:29:34;17.30;;;8.27;;
56201;SDS011;42117;50.360;3.508;2023-03-01T07:32:01;10.75;;;7.55;;
56201;SDS011;42117;50.360;3.508;2023-03-01T07:34:27;14.45;;;7.45;;
56201;SDS011;42117;50.360;3.508;2023-03-01T07:36:53;10.43;;;6.53;;
56201;SDS011;42117;50.360;3.508;2023-03-01T07:39:20;15.48;;;8.10;;
56201;SDS011;42117;50.360;3.508;2023-03-01T07:41:47;11.25;;;7.57;;
56201;SDS011;42117;50.360;3.508;2023-03-01T07:44:13;11.43;;;7.30;;
56201;SDS011;42117;50.360;3.508;2023-03-01T07:46:41;10.43;;;6.68;;
56201;SDS011;42117;50.360;3.508;2023-03-01T07:49:07;14.52;;;7.38;;
56201;SDS011;42117;50.360;3.508;2023-03-01T07:51:33;8.80;;;6.03;;
56201;SDS011;42117;50.360;3.508;2023-03-01T07:53:59;10.98;;;6.72;;
56201;SDS011;42117;50.360;3.508;2023-03-01T07:56:25;11.05;;;7.47;;
56201;SDS011;42117;50.360;3.508;2023-03-01T07:58:51;12.85;;;7.00;;
56201;SDS011;42117;50.360;3.508;2023-03-01T08:01:18;10.43;;;6.32;;
56201;SDS011;42117;50.360;3.508;2023-03-01T08:03:44;7.85;;;6.15;;
56201;SDS011;42117;50.360;3.508;2023-03-01T08:06:11;11.60;;;6.03;;
56201;SDS011;42117;50.360;3.508;2023-03-01T08:08:37;15.80;;;6.40;;
56201;SDS011;42117;50.360;3.508;2023-03-01T08:11:04;8.65;;;6.45;;
56201;SDS011;42117;50.360;3.508;2023-03-01T08:13:31;13.25;;;6.40;;
56201;SDS011;42117;50.360;3.508;2023-03-01T08:16:03;10.67;;;6.87;;
56201;SDS011;42117;50.360;3.508;2023-03-01T08:18:30;11.55;;;6.63;;
56201;SDS011;42117;50.360;3.508;2023-03-01T08:21:00;10.30;;;6.95;;
56201;SDS011;42117;50.360;3.508;2023-03-01T08:23:26;13.07;;;6.90;;
56201;SDS011;42117;50.360;3.508;2023-03-01T08:25:52;10.00;;;6.15;;
56201;SDS011;42117;50.360;3.508;2023-03-01T08:28:18;9.98;;;6.55;;
56201;SDS011;42117;50.360;3.508;2023-03-01T08:30:44;10.70;;;6.00;;
56201;SDS011;42117;50.360;3.508;2023-03-01T08:33:10;9.40;;;6.88;;
56201;SDS011;42117;50.360;3.508;2023-03-01T08:35:36;11.03;;;7.00;;
56201;SDS011;42117;50.360;3.508;2023-03-01T08:38:02;11.63;;;7.15;;
56201;SDS011;42117;50.360;3.508;2023-03-01T08:40:28;10.00;;;6.65;;
56201;SDS011;42117;50.360;3.508;2023-03-01T08:42:54;15.25;;;7.80;;
56201;SDS011;42117;50.360;3.508;2023-03-01T08:45:20;13.90;;;7.43;;
56201;SDS011;42117;50.360;3.508;2023-03-01T08:47:46;14.02;;;7.32;;
56201;SDS011;42117;50.360;3.508;2023-03-01T08:50:12;12.67;;;7.07;;
56201;SDS011;42117;50.360;3.508;2023-03-01T08:52:38;10.52;;;6.63;;
56201;SDS011;42117;50.360;3.508;2023-03-01T08:55:04;11.38;;;7.20;;
56201;SDS011;42117;50.360;3.508;2023-03-01T08:57:30;11.18;;;7.55;;
56201;SDS011;42117;50.360;3.508;2023-03-01T08:59:56;16.40;;;7.00;;
56201;SDS011;42117;50.360;3.508;2023-03-01T09:02:22;9.35;;;6.88;;
56201;SDS011;42117;50.360;3.508;2023-03-01T09:04:48;13.60;;;6.93;;
56201;SDS011;42117;50.360;3.508;2023-03-01T09:07:14;13.55;;;7.05;;
56201;SDS011;42117;50.360;3.508;2023-03-01T09:09:40;10.50;;;6.43;;
56201;SDS011;42117;50.360;3.508;2023-03-01T09:12:06;14.95;;;7.47;;
56201;SDS011;42117;50.360;3.508;2023-03-01T09:14:33;13.73;;;7.00;;
56201;SDS011;42117;50.360;3.508;2023-03-01T09:16:59;11.65;;;6.55;;
56201;SDS011;42117;50.360;3.508;2023-03-01T09:19:27;11.10;;;6.87;;
56201;SDS011;42117;50.360;3.508;2023-03-01T09:21:53;11.93;;;7.22;;
56201;SDS011;42117;50.360;3.508;2023-03-01T09:24:21;13.77;;;7.38;;
56201;SDS011;42117;50.360;3.508;2023-03-01T09:26:48;11.65;;;6.13;;
56201;SDS011;42117;50.360;3.508;2023-03-01T09:29:14;11.10;;;7.43;;
56201;SDS011;42117;50.360;3.508;2023-03-01T09:31:40;15.43;;;6.93;;
56201;SDS011;42117;50.360;3.508;2023-03-01T09:34:07;10.63;;;7.20;;
56201;SDS011;42117;50.360;3.508;2023-03-01T09:36:33;10.52;;;6.10;;
56201;SDS011;42117;50.360;3.508;2023-03-01T09:39:00;9.32;;;5.88;;
56201;SDS011;42117;50.360;3.508;2023-03-01T09:41:30;10.93;;;6.30;;
56201;SDS011;42117;50.360;3.508;2023-03-01T09:46:32;14.00;;;6.20;;
56201;SDS011;42117;50.360;3.508;2023-03-01T09:49:02;13.68;;;6.43;;
56201;SDS011;42117;50.360;3.508;2023-03-01T09:51:32;8.18;;;5.68;;
56201;SDS011;42117;50.360;3.508;2023-03-01T09:53:58;9.60;;;6.20;;
56201;SDS011;42117;50.360;3.508;2023-03-01T09:56:36;15.50;;;6.63;;
56201;SDS011;42117;50.360;3.508;2023-03-01T10:04:26;12.70;;;6.70;;
56201;SDS011;42117;50.360;3.508;2023-03-01T10:09:22;12.20;;;6.65;;
56201;SDS011;42117;50.360;3.508;2023-03-01T10:11:49;10.32;;;5.90;;
56201;SDS011;42117;50.360;3.508;2023-03-01T10:14:38;10.98;;;6.50;;
56201;SDS011;42117;50.360;3.508;2023-03-01T10:19:44;12.05;;;6.45;;
56201;SDS011;42117;50.360;3.508;2023-03-01T10:22:29;10.75;;;5.95;;
56201;SDS011;42117;50.360;3.508;2023-03-01T10:24:59;10.40;;;6.38;;
56201;SDS011;42117;50.360;3.508;2023-03-01T10:30:04;12.05;;;6.28;;
56201;SDS011;42117;50.360;3.508;2023-03-01T10:32:31;10.38;;;6.38;;
56201;SDS011;42117;50.360;3.508;2023-03-01T10:34:58;11.80;;;6.53;;
56201;SDS011;42117;50.360;3.508;2023-03-01T10:37:24;7.35;;;5.07;;
56201;SDS011;42117;50.360;3.508;2023-03-01T10:39:56;9.80;;;6.25;;
56201;SDS011;42117;50.360;3.508;2023-03-01T10:42:30;9.43;;;6.10;;
56201;SDS011;42117;50.360;3.508;2023-03-01T10:44:57;10.93;;;6.40;;
56201;SDS011;42117;50.360;3.508;2023-03-01T10:47:24;11.68;;;6.40;;
56201;SDS011;42117;50.360;3.508;2023-03-01T10:50:04;10.07;;;6.00;;
56201;SDS011;42117;50.360;3.508;2023-03-01T10:52:37;11.98;;;6.35;;
56201;SDS011;42117;50.360;3.508;2023-03-01T10:57:44;9.80;;;6.32;;
56201;SDS011;42117;50.360;3.508;2023-03-01T11:00:18;8.98;;;6.20;;
56201;SDS011;42117;50.360;3.508;2023-03-01T11:05:23;8.05;;;5.60;;
56201;SDS011;42117;50.360;3.508;2023-03-01T11:10:20;9.98;;;5.80;;
56201;SDS011;42117;50.360;3.508;2023-03-01T11:12:46;10.68;;;6.53;;
56201;SDS011;42117;50.360;3.508;2023-03-01T11:15:26;9.27;;;5.90;;
56201;SDS011;42117;50.360;3.508;2023-03-01T11:17:52;11.40;;;6.00;;
56201;SDS011;42117;50.360;3.508;2023-03-01T11:22:47;8.32;;;4.93;;
56201;SDS011;42117;50.360;3.508;2023-03-01T11:25:15;9.18;;;6.35;;
56201;SDS011;42117;50.360;3.508;2023-03-01T11:27:41;8.88;;;6.00;;
56201;SDS011;42117;50.360;3.508;2023-03-01T11:32:50;7.57;;;5.70;;
56201;SDS011;42117;50.360;3.508;2023-03-01T11:35:19;8.50;;;5.70;;
56201;SDS011;42117;50.360;3.508;2023-03-01T11:40:29;10.23;;;5.82;;
56201;SDS011;42117;50.360;3.508;2023-03-01T11:45:23;8.98;;;6.18;;
56201;SDS011;42117;50.360;3.508;2023-03-01T11:47:54;8.57;;;6.05;;
56201;SDS011;42117;50.360;3.508;2023-03-01T11:50:29;7.05;;;5.13;;
56201;SDS011;42117;50.360;3.508;2023-03-01T11:53:18;11.88;;;6.38;;
56201;SDS011;42117;50.360;3.508;2023-03-01T12:03:31;12.10;;;6.22;;
56201;SDS011;42117;50.360;3.508;2023-03-01T12:08:36;13.43;;;6.43;;
56201;SDS011;42117;50.360;3.508;2023-03-01T12:11:08;8.52;;;6.45;;
56201;SDS011;42117;50.360;3.508;2023-03-01T12:16:15;13.02;;;6.10;;
56201;SDS011;42117;50.360;3.508;2023-03-01T12:18:56;7.95;;;5.65;;
56201;SDS011;42117;50.360;3.508;2023-03-01T12:21:34;11.20;;;6.72;;
56201;SDS011;42117;50.360;3.508;2023-03-01T12:29:26;11.60;;;6.45;;
56201;SDS011;42117;50.360;3.508;2023-03-01T12:37:18;8.85;;;6.53;;
56201;SDS011;42117;50.360;3.508;2023-03-01T12:50:20;9.35;;;6.53;;
56201;SDS011;42117;50.360;3.508;2023-03-01T12:52:48;8.77;;;6.22;;
56201;SDS011;42117;50.360;3.508;2023-03-01T12:55:20;11.57;;;7.25;;
56201;SDS011;42117;50.360;3.508;2023-03-01T12:57:51;11.35;;;6.32;;
56201;SDS011;42117;50.360;3.508;2023-03-01T13:03:00;9.68;;;6.68;;
56201;SDS011;42117;50.360;3.508;2023-03-01T13:10:36;11.27;;;6.10;;
56201;SDS011;42117;50.360;3.508;2023-03-01T13:15:35;9.27;;;5.95;;
56201;SDS011;42117;50.360;3.508;2023-03-01T13:18:02;12.65;;;5.53;;
56201;SDS011;42117;50.360;3.508;2023-03-01T13:20:48;9.07;;;6.10;;
56201;SDS011;42117;50.360;3.508;2023-03-01T13:33:51;10.93;;;6.50;;
56201;SDS011;42117;50.360;3.508;2023-03-01T13:38:58;9.10;;;6.22;;
56201;SDS011;42117;50.360;3.508;2023-03-01T13:46:47;14.33;;;7.17;;
56201;SDS011;42117;50.360;3.508;2023-03-01T13:49:17;9.32;;;6.53;;
56201;SDS011;42117;50.360;3.508;2023-03-01T13:51:50;8.13;;;5.77;;
56201;SDS011;42117;50.360;3.508;2023-03-01T13:54:22;8.52;;;5.53;;
56201;SDS011;42117;50.360;3.508;2023-03-01T13:56:50;10.65;;;6.57;;
56201;SDS011;42117;50.360;3.508;2023-03-01T13:59:17;11.93;;;5.97;;
56201;SDS011;42117;50.360;3.508;2023-03-01T14:01:44;9.23;;;6.23;;
56201;SDS011;42117;50.360;3.508;2023-03-01T14:04:23;6.38;;;5.05;;
56201;SDS011;42117;50.360;3.508;2023-03-01T14:06:51;7.65;;;5.20;;
56201;SDS011;42117;50.360;3.508;2023-03-01T14:19:23;8.70;;;5.78;;
56201;SDS011;42117;50.360;3.508;2023-03-01T14:24:49;8.10;;;5.45;;
56201;SDS011;42117;50.360;3.508;2023-03-01T14:27:16;8.77;;;5.55;;
56201;SDS011;42117;50.360;3.508;2023-03-01T14:29:43;7.00;;;5.00;;
56201;SDS011;42117;50.360;3.508;2023-03-01T14:32:18;6.13;;;4.78;;
56201;SDS011;42117;50.360;3.508;2023-03-01T14:34:45;9.73;;;5.65;;
56201;SDS011;42117;50.360;3.508;2023-03-01T14:37:25;7.18;;;5.40;;
56201;SDS011;42117;50.360;3.508;2023-03-01T14:39:51;7.00;;;5.05;;
56201;SDS011;42117;50.360;3.508;2023-03-01T14:42:18;7.78;;;5.43;;
56201;SDS011;42117;50.360;3.508;2023-03-01T14:44:46;8.88;;;5.40;;
56201;SDS011;42117;50.360;3.508;2023-03-01T14:47:14;6.07;;;4.60;;
56201;SDS011;42117;50.360;3.508;2023-03-01T14:49:41;6.25;;;5.05;;
56201;SDS011;42117;50.360;3.508;2023-03-01T14:52:14;7.75;;;5.22;;
56201;SDS011;42117;50.360;3.508;2023-03-01T14:54:49;13.73;;;5.47;;
56201;SDS011;42117;50.360;3.508;2023-03-01T14:57:19;9.80;;;5.50;;
56201;SDS011;42117;50.360;3.508;2023-03-01T14:59:49;9.00;;;4.77;;
56201;SDS011;42117;50.360;3.508;2023-03-01T15:02:18;8.32;;;4.50;;
56201;SDS011;42117;50.360;3.508;2023-03-01T15:04:46;9.80;;;4.87;;
56201;SDS011;42117;50.360;3.508;2023-03-01T15:07:16;7.22;;;5.22;;
56201;SDS011;42117;50.360;3.508;2023-03-01T15:09:43;12.27;;;5.55;;
56201;SDS011;42117;50.360;3.508;2023-03-01T15:12:32;9.70;;;4.68;;
56201;SDS011;42117;50.360;3.508;2023-03-01T15:15:00;6.32;;;4.78;;
56201;SDS011;42117;50.360;3.508;2023-03-01T15:17:28;5.97;;;4.47;;
56201;SDS011;42117;50.360;3.508;2023-03-01T15:19:56;6.32;;;4.32;;
56201;SDS011;42117;50.360;3.508;2023-03-01T15:22:23;10.90;;;4.93;;
56201;SDS011;42117;50.360;3.508;2023-03-01T15:24:50;6.50;;;4.63;;
56201;SDS011;42117;50.360;3.508;2023-03-01T15:27:17;7.25;;;5.07;;
56201;SDS011;42117;50.360;3.508;2023-03-01T15:29:47;7.63;;;5.37;;
56201;SDS011;42117;50.360;3.508;2023-03-01T15:32:27;8.07;;;4.97;;
56201;SDS011;42117;50.360;3.508;2023-03-01T15:34:54;6.90;;;4.57;;
56201;SDS011;42117;50.360;3.508;2023-03-01T15:37:40;5.93;;;4.13;;
56201;SDS011;42117;50.360;3.508;2023-03-01T15:40:23;6.70;;;4.35;;
56201;SDS011;42117;50.360;3.508;2023-03-01T15:42:56;8.80;;;4.65;;
56201;SDS011;42117;50.360;3.508;2023-03-01T15:45:23;6.15;;;4.75;;
56201;SDS011;42117;50.360;3.508;2023-03-01T15:48:01;5.95;;;4.95;;
56201;SDS011;42117;50.360;3.508;2023-03-01T15:50:32;7.28;;;4.28;;
56201;SDS011;42117;50.360;3.508;2023-03-01T15:52:59;7.38;;;4.38;;
56201;SDS011;42117;50.360;3.508;2023-03-01T15:55:29;8.02;;;5.03;;
56201;SDS011;42117;50.360;3.508;2023-03-01T15:58:00;10.02;;;4.95;;
56201;SDS011;42117;50.360;3.508;2023-03-01T16:00:26;7.30;;;4.28;;
56201;SDS011;42117;50.360;3.508;2023-03-01T16:02:52;7.50;;;5.10;;
56201;SDS011;42117;50.360;3.508;2023-03-01T16:05:20;7.45;;;5.47;;
56201;SDS011;42117;50.360;3.508;2023-03-01T16:07:46;7.85;;;4.85;;
56201;SDS011;42117;50.360;3.508;2023-03-01T16:10:12;9.70;;;5.05;;
56201;SDS011;42117;50.360;3.508;2023-03-01T16:12:38;6.63;;;4.90;;
56201;SDS011;42117;50.360;3.508;2023-03-01T16:15:08;8.50;;;5.05;;
56201;SDS011;42117;50.360;3.508;2023-03-01T16:17:39;7.53;;;4.90;;
56201;SDS011;42117;50.360;3.508;2023-03-01T16:20:05;6.82;;;4.90;;
56201;SDS011;42117;50.360;3.508;2023-03-01T16:22:31;9.13;;;5.07;;
56201;SDS011;42117;50.360;3.508;2023-03-01T16:24:57;9.60;;;5.20;;
56201;SDS011;42117;50.360;3.508;2023-03-01T16:27:23;8.02;;;5.25;;
56201;SDS011;42117;50.360;3.508;2023-03-01T16:29:49;10.63;;;5.40;;
56201;SDS011;42117;50.360;3.508;2023-03-01T16:32:15;14.53;;;6.37;;
56201;SDS011;42117;50.360;3.508;2023-03-01T16:34:41;19.20;;;7.70;;
56201;SDS011;42117;50.360;3.508;2023-03-01T16:37:07;15.10;;;6.55;;
56201;SDS011;42117;50.360;3.508;2023-03-01T16:39:33;10.95;;;5.85;;